Time;durP1;ratioP1;P1;durP2;ratioP2;P2;SDS_P1;SDS_P2;PMS_P1;PMS_P2;Temp;Humidity;BMP_temperature;BMP_pressure;BME280_temperature;BME280_humidity;BME280_pressure;Samples;Min_cycle;Max_cycle;Signal;HPM_P1;HPM_P2
2021/01/26 00:00:54;;;;;;;;;15.75;15.00;;;;;-1.39;83.00;99727.97;3725806;38;20715;-63
2021/01/26 00:03:21;;;;;;;;;18.00;15.75;;;;;-1.36;83.10;99736.50;3725609;38;20742;-64
2021/01/26 00:05:48;;;;;;;;;16.00;15.00;;;;;-1.48;82.75;99718.97;3725561;38;20736;-61
2021/01/26 00:08:15;;;;;;;;;16.75;16.00;;;;;-1.35;83.25;99745.31;3725881;37;20709;-63
2021/01/26 00:10:41;;;;;;;;;16.50;12.25;;;;;-1.37;83.06;99742.78;3725640;38;20710;-63
2021/01/26 00:13:09;;;;;;;;;12.50;11.50;;;;;-1.30;83.39;99753.75;3725852;38;20707;-62
2021/01/26 00:15:36;;;;;;;;;17.00;14.75;;;;;-1.25;83.12;99762.16;3725914;38;20684;-63
2021/01/26 00:18:04;;;;;;;;;22.50;19.00;;;;;-1.27;83.00;99764.09;3725766;38;20714;-63
2021/01/26 00:20:30;;;;;;;;;17.25;15.00;;;;;-1.39;83.02;99754.50;3725782;38;20681;-62
2021/01/26 00:22:57;;;;;;;;;15.50;13.25;;;;;-1.36;82.83;99778.13;3725903;37;20702;-61
2021/01/26 00:25:27;;;;;;;;;27.25;18.75;;;;;-1.54;83.37;99763.72;3725792;38;20702;-63
2021/01/26 00:27:53;;;;;;;;;16.00;14.50;;;;;-1.35;83.09;99801.06;3726110;38;20690;-62
2021/01/26 00:30:26;;;;;;;;;15.00;13.75;;;;;-1.38;83.28;99809.28;3726138;37;20711;-61
2021/01/26 00:32:52;;;;;;;;;17.50;15.75;;;;;-1.40;83.44;99824.47;3725843;38;20698;-61
2021/01/26 00:35:21;;;;;;;;;18.75;16.00;;;;;-1.41;83.51;99823.63;3725877;37;20685;-63
2021/01/26 00:37:47;;;;;;;;;21.00;18.75;;;;;-1.40;83.40;99819.16;3725720;38;20674;-62
2021/01/26 00:40:15;;;;;;;;;8.00;7.00;;;;;-1.66;83.33;99794.78;3725863;37;20680;-61
2021/01/26 00:42:41;;;;;;;;;17.50;16.75;;;;;-1.52;83.42;99826.31;3725596;38;20656;-62
2021/01/26 00:45:09;;;;;;;;;24.00;22.25;;;;;-1.46;84.05;99836.44;3725874;37;21102;-61
2021/01/26 00:47:36;;;;;;;;;29.50;24.50;;;;;-1.49;83.95;99835.84;3726285;38;21127;-61
2021/01/26 00:50:05;;;;;;;;;25.25;23.50;;;;;-1.50;83.85;99844.78;3726178;37;21080;-61
2021/01/26 00:52:32;;;;;;;;;23.00;21.00;;;;;-1.47;83.57;99848.03;3727001;37;21069;-64
2021/01/26 00:54:58;;;;;;;;;24.00;21.00;;;;;-1.40;83.89;99849.22;3726332;38;21065;-62
2021/01/26 00:57:24;;;;;;;;;21.25;16.50;;;;;-1.45;83.78;99851.38;3725457;38;21081;-62
2021/01/26 00:59:50;;;;;;;;;20.75;20.25;;;;;-1.50;83.73;99845.59;3725066;37;21055;-61
2021/01/26 01:02:17;;;;;;;;;21.75;19.00;;;;;-1.58;83.90;99840.13;3724969;38;21044;-62
2021/01/26 01:04:45;;;;;;;;;18.75;18.00;;;;;-1.68;84.00;99840.00;3725243;38;21044;-61
2021/01/26 01:07:13;;;;;;;;;27.00;23.00;;;;;-1.78;84.43;99839.06;3725682;38;21072;-62
2021/01/26 01:09:39;;;;;;;;;22.75;17.25;;;;;-1.79;84.26;99826.75;3725772;38;21064;-61
2021/01/26 01:12:06;;;;;;;;;19.25;19.00;;;;;-1.89;84.61;99811.69;3725632;37;21064;-64
2021/01/26 01:14:32;;;;;;;;;17.75;17.25;;;;;-1.80;84.68;99829.53;3725675;37;21061;-64
2021/01/26 01:16:59;;;;;;;;;21.00;17.50;;;;;-1.77;84.81;99819.53;3725609;37;21033;-64
2021/01/26 01:19:25;;;;;;;;;24.00;18.50;;;;;-1.77;84.92;99830.12;3725735;37;21046;-65
2021/01/26 01:21:51;;;;;;;;;15.75;13.75;;;;;-1.84;84.84;99823.63;3725629;38;21053;-63
2021/01/26 01:24:18;;;;;;;;;18.25;15.75;;;;;-1.67;85.10;99857.59;3725642;37;21014;-64
2021/01/26 01:26:44;;;;;;;;;25.00;17.75;;;;;-1.61;84.63;99863.37;3725669;37;21039;-62
2021/01/26 01:29:11;;;;;;;;;12.00;11.75;;;;;-1.49;84.65;99880.94;3725460;37;21027;-62
2021/01/26 01:31:38;;;;;;;;;19.75;16.75;;;;;-1.55;84.54;99855.75;3725400;38;20989;-61
2021/01/26 01:34:06;;;;;;;;;19.75;13.50;;;;;-1.42;84.70;99884.81;3725566;37;21027;-62
2021/01/26 01:36:36;;;;;;;;;15.75;15.25;;;;;-1.42;84.57;99877.69;3725499;37;21045;-63
2021/01/26 01:39:07;;;;;;;;;17.00;13.00;;;;;-1.43;84.79;99880.47;3725610;37;20995;-63
2021/01/26 01:41:36;;;;;;;;;19.50;18.00;;;;;-1.44;84.67;99882.28;3725492;38;20981;-62
2021/01/26 01:44:06;;;;;;;;;18.50;15.00;;;;;-1.48;84.35;99888.78;3725548;37;21003;-62
2021/01/26 01:46:40;;;;;;;;;20.00;16.25;;;;;-1.68;84.16;99871.84;3725398;37;21020;-62
2021/01/26 01:49:11;;;;;;;;;25.00;20.00;;;;;-1.57;85.00;99884.25;3725544;37;21017;-61
2021/01/26 01:51:41;;;;;;;;;21.50;17.50;;;;;-1.75;84.35;99856.53;3725444;37;21018;-62
2021/01/26 01:54:26;;;;;;;;;35.75;30.50;;;;;-1.54;84.86;99891.94;3725708;38;20999;-62
2021/01/26 01:57:27;;;;;;;;;21.00;18.50;;;;;-1.51;84.68;99896.16;3725532;38;21108;-60
2021/01/26 02:00:00;;;;;;;;;20.00;15.25;;;;;-1.61;85.34;99864.25;3725749;38;20993;-61
2021/01/26 02:02:29;;;;;;;;;20.25;19.75;;;;;-1.47;84.52;99884.31;3725562;38;20986;-62
2021/01/26 02:04:58;;;;;;;;;22.00;18.50;;;;;-1.41;85.00;99892.63;3725632;38;20965;-62
2021/01/26 02:07:26;;;;;;;;;15.50;12.00;;;;;-1.41;84.53;99887.31;3725698;37;20877;-63
2021/01/26 02:09:53;;;;;;;;;19.75;18.25;;;;;-1.39;84.58;99898.66;3725646;37;20929;-61
2021/01/26 02:12:19;;;;;;;;;25.25;17.25;;;;;-1.35;85.18;99888.66;3725502;38;20955;-62
2021/01/26 02:14:51;;;;;;;;;34.25;23.75;;;;;-1.29;84.84;99890.81;3725470;37;21004;-61
2021/01/26 02:17:47;;;;;;;;;23.75;22.75;;;;;-1.32;84.40;99893.72;3725592;38;21002;-61
2021/01/26 02:20:57;;;;;;;;;22.25;18.50;;;;;-1.39;84.87;99892.50;3725750;37;20915;-62
2021/01/26 02:24:16;;;;;;;;;22.50;20.50;;;;;-1.41;84.66;99883.84;3725629;38;20984;-62
2021/01/26 02:27:50;;;;;;;;;22.00;18.50;;;;;-1.48;84.35;99872.03;3725744;37;20962;-61
2021/01/26 02:30:50;;;;;;;;;19.50;16.25;;;;;-1.64;84.61;99851.22;3725392;37;20983;-63
2021/01/26 02:34:03;;;;;;;;;22.75;21.75;;;;;-1.40;84.83;99899.63;3725619;37;20899;-63
2021/01/26 02:37:02;;;;;;;;;25.75;18.75;;;;;-1.31;84.82;99894.56;3725698;38;20952;-63
2021/01/26 02:39:34;;;;;;;;;24.75;17.25;;;;;-1.35;84.72;99905.41;3725587;37;20941;-62
2021/01/26 02:42:49;;;;;;;;;23.25;19.50;;;;;-1.36;84.71;99900.22;3725590;37;20886;-62
2021/01/26 02:45:31;;;;;;;;;26.25;21.00;;;;;-1.52;84.61;99890.00;3725592;37;20924;-62
2021/01/26 02:48:42;;;;;;;;;25.00;22.50;;;;;-1.62;84.64;99869.66;3725506;38;20917;-62
2021/01/26 02:51:41;;;;;;;;;27.50;21.00;;;;;-1.48;84.76;99883.47;3725760;37;20913;-63
2021/01/26 02:54:29;;;;;;;;;19.25;19.00;;;;;-1.40;84.77;99910.25;3725710;37;20917;-62
2021/01/26 02:57:20;;;;;;;;;16.50;14.75;;;;;-1.27;85.18;99903.97;3725578;37;20911;-62
2021/01/26 03:00:26;;;;;;;;;19.00;17.75;;;;;-1.29;84.76;99879.34;3725926;37;20892;-63
2021/01/26 03:03:09;;;;;;;;;20.75;16.00;;;;;-1.19;84.73;99886.44;3725668;37;20884;-63
2021/01/26 03:06:01;;;;;;;;;23.25;22.00;;;;;-1.30;84.62;99883.81;3725564;38;20887;-63
2021/01/26 03:09:00;;;;;;;;;20.50;14.50;;;;;-1.67;84.52;99854.97;3725765;38;20893;-62
2021/01/26 03:12:09;;;;;;;;;10.25;10.25;;;;;-1.40;84.55;99885.53;3725655;38;20874;-63
2021/01/26 03:15:01;;;;;;;;;18.75;17.75;;;;;-1.36;84.65;99885.16;3725780;37;20902;-63
2021/01/26 03:17:41;;;;;;;;;24.25;20.75;;;;;-1.40;84.55;99858.97;3725609;37;20978;-63
2021/01/26 03:20:38;;;;;;;;;21.75;20.75;;;;;-1.44;84.71;99857.53;3726299;37;20892;-62
2021/01/26 03:23:13;;;;;;;;;23.25;15.50;;;;;-1.48;84.89;99866.72;3726353;38;20879;-64
2021/01/26 03:25:49;;;;;;;;;16.00;12.25;;;;;-1.51;84.46;99867.81;3726424;37;20880;-62
2021/01/26 03:28:18;;;;;;;;;22.25;17.75;;;;;-1.44;84.37;99894.69;3726139;37;20835;-63
2021/01/26 03:30:49;;;;;;;;;23.75;19.50;;;;;-1.44;84.59;99921.22;3725677;38;20879;-62
2021/01/26 03:33:22;;;;;;;;;24.50;21.25;;;;;-1.53;84.43;99912.19;3725670;38;20834;-64
2021/01/26 03:35:49;;;;;;;;;26.50;22.00;;;;;-1.45;84.53;99932.81;3725531;38;20865;-63
2021/01/26 03:38:24;;;;;;;;;21.25;20.00;;;;;-1.46;84.64;99933.78;3725627;37;20864;-64
2021/01/26 03:40:52;;;;;;;;;26.00;21.75;;;;;-1.52;84.77;99928.97;3725561;37;20861;-63
2021/01/26 03:43:20;;;;;;;;;33.50;25.75;;;;;-1.51;84.88;99925.34;3725503;38;20861;-62
2021/01/26 03:45:54;;;;;;;;;29.50;25.00;;;;;-1.44;84.73;99922.06;3725640;37;20966;-62
2021/01/26 03:49:03;;;;;;;;;35.50;28.50;;;;;-1.48;84.73;99888.78;3725766;38;21050;-64
2021/01/26 03:52:13;;;;;;;;;26.25;22.00;;;;;-1.24;84.92;99912.50;3725633;38;20948;-64
2021/01/26 03:55:21;;;;;;;;;24.75;23.75;;;;;-1.52;84.98;99858.16;3725851;37;20839;-63
2021/01/26 03:58:29;;;;;;;;;30.50;25.50;;;;;-0.98;84.79;99928.97;3725939;37;20820;-65
2021/01/26 04:01:33;;;;;;;;;38.50;25.25;;;;;-1.01;84.55;99924.75;3725618;38;20937;-62
2021/01/26 04:04:24;;;;;;;;;29.75;22.00;;;;;-0.90;84.53;99942.47;3725829;38;20894;-62
2021/01/26 04:07:01;;;;;;;;;27.25;21.50;;;;;-0.81;84.21;99943.50;3725683;37;20815;-63
2021/01/26 04:09:34;;;;;;;;;28.75;21.25;;;;;-0.73;84.50;99943.72;3725660;37;20798;-62
2021/01/26 04:12:17;;;;;;;;;16.25;13.00;;;;;-0.65;84.81;99943.09;3725602;38;20817;-61
2021/01/26 04:14:58;;;;;;;;;22.00;22.00;;;;;-0.68;84.34;99947.69;3725957;37;20901;-62
2021/01/26 04:17:47;;;;;;;;;27.00;23.50;;;;;-0.78;84.46;99930.81;3726166;38;20895;-60
2021/01/26 04:20:23;;;;;;;;;30.75;27.50;;;;;-0.57;84.10;99957.44;3726148;38;20794;-63
2021/01/26 04:22:58;;;;;;;;;22.00;16.75;;;;;-0.63;84.38;99941.16;3725545;37;20807;-63
2021/01/26 04:25:39;;;;;;;;;30.50;26.75;;;;;-0.52;84.54;99947.25;3725477;37;20772;-62
2021/01/26 04:28:11;;;;;;;;;31.25;28.25;;;;;-0.50;83.81;99947.97;3725633;37;20818;-62
2021/01/26 04:30:39;;;;;;;;;34.50;29.50;;;;;-0.60;83.86;99935.59;3725440;38;20778;-63
2021/01/26 04:33:09;;;;;;;;;31.00;27.50;;;;;-0.69;84.21;99919.44;3725482;37;21897;-63
2021/01/26 04:35:36;;;;;;;;;49.00;37.50;;;;;-0.50;84.24;99945.31;3725675;37;21865;-62
2021/01/26 04:38:03;;;;;;;;;32.75;31.50;;;;;-0.51;84.09;99948.94;3725419;37;20914;-63
2021/01/26 04:40:31;;;;;;;;;28.75;26.00;;;;;-0.50;84.05;99965.72;3725689;37;21884;-62
2021/01/26 04:43:32;;;;;;;;;37.50;28.50;;;;;-0.89;84.23;99898.16;3726265;37;21896;-61
2021/01/26 04:46:25;;;;;;;;;37.50;34.00;;;;;-0.44;84.32;99965.22;3726037;37;21862;-64
2021/01/26 04:49:19;;;;;;;;;43.75;35.00;;;;;-0.30;84.10;99977.34;3726093;38;21885;-63
2021/01/26 04:52:17;;;;;;;;;38.50;36.50;;;;;-0.43;83.98;99948.28;3726146;37;21797;-60
2021/01/26 04:55:34;;;;;;;;;35.25;32.25;;;;;-0.27;83.91;99974.44;3725781;37;21866;-63
2021/01/26 04:58:35;;;;;;;;;51.50;41.00;;;;;-0.28;83.70;99967.44;3727034;38;21854;-61
2021/01/26 05:01:25;;;;;;;;;55.75;42.00;;;;;-0.16;84.29;99985.03;3727359;38;21835;-60
2021/01/26 05:04:13;;;;;;;;;43.00;38.50;;;;;-0.16;83.87;99983.19;3726998;38;21839;-62
2021/01/26 05:07:06;;;;;;;;;42.75;32.75;;;;;-0.13;84.07;99974.12;3725851;38;21866;-62
2021/01/26 05:09:41;;;;;;;;;59.50;46.25;;;;;-0.11;83.86;99973.03;3725748;38;21826;-63
2021/01/26 05:12:11;;;;;;;;;43.50;38.75;;;;;-0.18;83.62;99985.16;3725561;38;21843;-63
2021/01/26 05:14:44;;;;;;;;;52.50;43.75;;;;;-0.24;83.61;99985.66;3725612;38;21834;-63
2021/01/26 05:17:20;;;;;;;;;51.50;39.50;;;;;-0.21;83.62;99988.06;3725739;38;21841;-64
2021/01/26 05:19:58;;;;;;;;;59.25;44.75;;;;;-0.23;83.90;99983.84;3726008;37;21815;-63
2021/01/26 05:22:31;;;;;;;;;55.50;48.00;;;;;-0.10;83.86;100000.47;3725851;37;21832;-62
2021/01/26 05:25:13;;;;;;;;;51.75;45.50;;;;;-0.19;83.29;100001.22;3725713;38;21842;-64
2021/01/26 05:27:40;;;;;;;;;93.00;73.00;;;;;-0.22;83.68;100031.59;3725692;37;21816;-62
2021/01/26 05:30:10;;;;;;;;;92.50;70.00;;;;;-0.34;83.78;100025.47;3725713;37;18632;-64
2021/01/26 05:32:41;;;;;;;;;94.75;70.00;;;;;-0.13;83.91;100037.94;3725664;37;18641;-61
2021/01/26 05:35:09;;;;;;;;;86.25;65.50;;;;;-0.15;83.45;100047.88;3726019;38;18613;-63
2021/01/26 05:37:35;;;;;;;;;83.00;64.50;;;;;-0.16;83.13;100048.84;3725858;37;18613;-64
2021/01/26 05:40:22;;;;;;;;;69.75;56.75;;;;;-0.15;83.52;100039.91;3725789;38;18616;-62
2021/01/26 05:42:58;;;;;;;;;83.75;65.00;;;;;-0.10;83.52;100045.69;3726140;38;21809;-64
2021/01/26 05:45:51;;;;;;;;;85.00;62.25;;;;;-2.32;83.36;99687.91;3726022;37;18625;-62
2021/01/26 05:48:21;;;;;;;;;77.00;55.00;;;;;-0.13;83.31;100056.56;3725851;38;18629;-62
2021/01/26 05:50:49;;;;;;;;;64.25;51.25;;;;;-0.14;83.28;100061.03;3725680;37;21784;-60
2021/01/26 05:53:27;;;;;;;;;73.25;54.50;;;;;-0.20;83.33;100047.41;3725670;37;21793;-62
2021/01/26 05:56:10;;;;;;;;;81.00;62.25;;;;;-0.03;83.54;100070.78;3726981;37;21765;-64
2021/01/26 05:58:39;;;;;;;;;79.75;59.50;;;;;0.02;84.00;100073.03;3725872;38;21797;-63
2021/01/26 06:01:32;;;;;;;;;99.50;74.50;;;;;0.06;83.43;100072.66;3727984;37;21780;-61
2021/01/26 06:04:11;;;;;;;;;79.75;63.25;;;;;-0.01;83.42;100060.87;3726085;37;18574;-63
2021/01/26 06:07:20;;;;;;;;;87.75;61.00;;;;;-1.38;83.34;99827.84;3725956;37;18579;-62
2021/01/26 06:09:48;;;;;;;;;80.00;61.50;;;;;-0.08;83.31;100076.50;3725321;38;18596;-62
2021/01/26 06:12:21;;;;;;;;;74.00;58.50;;;;;-0.09;83.19;100074.81;3725258;37;21756;-64
2021/01/26 06:15:07;;;;;;;;;81.75;61.00;;;;;-0.10;83.34;100043.87;3725672;37;21797;-63
2021/01/26 06:17:37;;;;;;;;;86.50;65.25;;;;;0.07;83.31;100060.19;3725520;37;21761;-64
2021/01/26 06:20:24;;;;;;;;;93.50;72.75;;;;;0.12;83.40;100058.00;3725562;37;18549;-62
2021/01/26 06:22:52;;;;;;;;;89.50;65.25;;;;;-0.03;83.68;100031.75;3725379;37;18564;-62
2021/01/26 06:25:33;;;;;;;;;90.75;66.25;;;;;0.17;83.43;100053.97;3725142;37;18565;-62
2021/01/26 06:28:34;;;;;;;;;84.50;62.00;;;;;0.12;83.22;100044.69;3725778;38;18541;-64
2021/01/26 06:31:41;;;;;;;;;82.25;63.25;;;;;0.16;83.18;100065.59;3726162;37;18559;-64
2021/01/26 06:34:48;;;;;;;;;78.25;61.00;;;;;-0.09;83.25;100042.03;3725988;37;21747;-64
2021/01/26 06:38:02;;;;;;;;;81.00;63.75;;;;;0.23;83.46;100082.72;3725757;38;21739;-63
2021/01/26 06:41:01;;;;;;;;;90.00;67.25;;;;;0.35;83.24;100109.28;3725755;37;21734;-63
2021/01/26 06:44:10;;;;;;;;;88.75;68.00;;;;;0.28;83.30;100096.50;3725958;38;18507;-63
2021/01/26 06:47:10;;;;;;;;;88.75;66.75;;;;;0.42;83.36;100118.44;3725739;37;18531;-62
2021/01/26 06:50:20;;;;;;;;;99.75;77.50;;;;;0.44;83.36;100111.19;3725925;38;18528;-66
2021/01/26 06:53:24;;;;;;;;;92.50;75.00;;;;;0.56;83.05;100126.94;3725843;37;18538;-62
2021/01/26 06:56:33;;;;;;;;;99.50;80.00;;;;;0.45;83.20;100081.75;3726071;38;18534;-62
2021/01/26 06:59:26;;;;;;;;;100.00;81.75;;;;;0.69;82.77;100125.88;3725814;37;18522;-63
2021/01/26 07:02:38;;;;;;;;;107.00;91.25;;;;;0.66;82.84;100119.84;3725772;38;18529;-62
2021/01/26 07:05:45;;;;;;;;;105.25;89.75;;;;;0.57;82.85;100099.31;3726221;37;18512;-64
2021/01/26 07:09:18;;;;;;;;;115.75;96.25;;;;;0.58;82.87;100079.72;3725656;38;18517;-65
2021/01/26 07:12:34;;;;;;;;;126.50;102.25;;;;;0.84;82.75;100113.94;3726207;38;18476;-65
2021/01/26 07:15:24;;;;;;;;;126.25;108.25;;;;;0.86;82.93;100103.97;3726930;38;18506;-64
2021/01/26 07:18:40;;;;;;;;;169.25;127.50;;;;;0.82;82.64;100092.75;3725961;38;18500;-63
2021/01/26 07:21:55;;;;;;;;;142.25;114.25;;;;;1.07;82.74;100114.56;3725903;37;18496;-63
2021/01/26 07:24:59;;;;;;;;;135.25;116.50;;;;;0.94;82.50;100104.16;3725928;38;18457;-64
2021/01/26 07:28:07;;;;;;;;;134.50;115.00;;;;;1.16;82.47;100143.09;3726306;37;18461;-64
2021/01/26 07:30:51;;;;;;;;;113.75;98.00;;;;;1.02;82.18;100124.81;3726676;38;18473;-63
2021/01/26 07:33:28;;;;;;;;;136.00;108.75;;;;;1.26;82.28;100165.31;3726361;38;18463;-63
2021/01/26 07:36:36;;;;;;;;;153.75;128.00;;;;;0.97;82.11;100126.06;3726031;37;18451;-65
2021/01/26 07:39:43;;;;;;;;;130.00;108.50;;;;;1.11;82.01;100153.31;3725966;37;18463;-63
2021/01/26 07:42:19;;;;;;;;;118.50;97.00;;;;;1.22;81.91;100166.53;3726764;37;18739;-63
2021/01/26 07:45:18;;;;;;;;;103.75;87.00;;;;;0.98;81.79;100125.09;3726439;38;18473;-63
2021/01/26 07:48:03;;;;;;;;;96.25;76.25;;;;;1.12;81.91;100163.81;3726179;37;18435;-62
2021/01/26 07:50:45;;;;;;;;;89.00;66.75;;;;;1.15;81.97;100166.22;3726159;38;18439;-65
2021/01/26 07:53:59;;;;;;;;;93.25;68.25;;;;;1.25;81.66;100167.13;3726328;37;18415;-63
2021/01/26 07:56:40;;;;;;;;;81.75;65.50;;;;;1.35;81.67;100175.16;3726596;37;18434;-63
2021/01/26 07:59:23;;;;;;;;;90.75;68.25;;;;;1.41;81.51;100174.62;3725955;38;18433;-63
2021/01/26 08:01:55;;;;;;;;;88.00;67.50;;;;;1.42;81.20;100183.47;3725880;37;18420;-65
2021/01/26 08:04:23;;;;;;;;;88.25;64.75;;;;;1.36;81.17;100160.00;3725807;38;18414;-63
2021/01/26 08:07:01;;;;;;;;;80.25;61.00;;;;;1.54;80.73;100190.41;3726073;38;18412;-63
2021/01/26 08:09:43;;;;;;;;;75.50;59.00;;;;;1.54;80.68;100193.91;3725934;38;18409;-62
2021/01/26 08:12:39;;;;;;;;;82.50;62.50;;;;;1.55;80.90;100198.28;3725746;38;21622;-62
2021/01/26 08:15:31;;;;;;;;;77.75;56.75;;;;;1.64;80.79;100205.44;3725715;37;21576;-63
2021/01/26 08:18:16;;;;;;;;;74.75;57.50;;;;;1.75;79.76;100201.81;3725936;37;21588;-62
2021/01/26 08:20:43;;;;;;;;;80.00;63.25;;;;;1.74;79.07;100207.28;3725693;37;21595;-64
2021/01/26 08:23:20;;;;;;;;;89.75;67.25;;;;;1.81;79.59;100195.09;3725817;37;18415;-63
2021/01/26 08:25:47;;;;;;;;;85.00;64.00;;;;;1.96;79.49;100199.91;3726224;37;18385;-63
2021/01/26 08:29:00;;;;;;;;;90.25;65.75;;;;;1.95;79.21;100206.22;3725749;37;18411;-63
2021/01/26 08:31:44;;;;;;;;;91.00;65.50;;;;;1.83;78.79;100198.47;3727822;37;18409;-63
2021/01/26 08:34:42;;;;;;;;;94.75;72.00;;;;;1.45;78.28;100128.06;3726339;38;18372;-63
2021/01/26 08:37:48;;;;;;;;;99.50;85.00;;;;;1.85;78.04;100196.50;3728109;37;18359;-62
2021/01/26 08:40:41;;;;;;;;;88.00;67.50;;;;;1.87;77.72;100187.41;3727072;37;18367;-63
2021/01/26 08:43:09;;;;;;;;;88.50;66.25;;;;;1.67;76.78;100196.31;3723976;37;18383;-62
2021/01/26 08:45:51;;;;;;;;;92.00;70.25;;;;;1.60;76.55;100197.84;3722361;37;18392;-63
2021/01/26 08:48:36;;;;;;;;;82.25;63.25;;;;;1.86;77.00;100217.72;3725795;38;18380;-63
2021/01/26 08:51:11;;;;;;;;;87.50;66.25;;;;;1.97;76.50;100212.28;3725929;38;18349;-63
2021/01/26 08:53:39;;;;;;;;;83.50;68.75;;;;;2.17;75.88;100223.81;3725901;37;21568;-63
2021/01/26 08:56:43;;;;;;;;;96.00;73.75;;;;;2.12;75.38;100222.53;3725928;37;18375;-63
2021/01/26 08:59:29;;;;;;;;;101.50;87.00;;;;;2.24;75.53;100230.28;3725996;37;18367;-63
2021/01/26 09:01:55;;;;;;;;;97.25;79.25;;;;;2.12;74.14;100211.88;3726239;37;18333;-63
2021/01/26 09:04:42;;;;;;;;;97.75;79.00;;;;;2.11;75.17;100210.16;3726537;37;18407;-63
2021/01/26 09:07:09;;;;;;;;;99.25;80.00;;;;;2.15;74.64;100192.91;3726488;38;18677;-69
2021/01/26 09:09:47;;;;;;;;;88.75;66.00;;;;;2.31;74.40;100185.19;3726157;37;18321;-71
2021/01/26 09:12:21;;;;;;;;;83.50;64.00;;;;;2.21;74.33;100158.47;3726138;38;18334;-73
2021/01/26 09:14:53;;;;;;;;;91.50;68.25;;;;;2.60;73.69;100211.91;3726379;37;18332;-67
2021/01/26 09:17:40;;;;;;;;;98.50;82.75;;;;;2.75;73.78;100218.50;3726331;37;18339;-70
2021/01/26 09:20:28;;;;;;;;;94.50;80.75;;;;;2.94;73.36;100213.13;3728211;37;18304;-69
2021/01/26 09:23:03;;;;;;;;;98.25;79.75;;;;;2.90;72.41;100209.06;3729386;37;18329;-68
2021/01/26 09:25:41;;;;;;;;;90.75;72.00;;;;;2.94;72.36;100226.50;3729629;37;18311;-66
2021/01/26 09:28:10;;;;;;;;;88.75;66.00;;;;;2.94;71.90;100225.66;3726292;37;18301;-68
2021/01/26 09:30:39;;;;;;;;;94.00;68.50;;;;;3.13;72.00;100230.09;3726547;37;18328;-69
2021/01/26 09:33:26;;;;;;;;;77.75;59.50;;;;;3.27;71.39;100243.00;3726053;37;18290;-71
2021/01/26 09:36:15;;;;;;;;;64.00;49.00;;;;;3.44;70.55;100247.63;3725474;37;21502;-71
2021/01/26 09:38:49;;;;;;;;;69.25;53.50;;;;;3.48;69.45;100248.19;3725856;38;21496;-71
2021/01/26 09:41:26;;;;;;;;;84.75;63.25;;;;;3.36;69.47;100234.13;3725502;38;21475;-71
2021/01/26 09:44:01;;;;;;;;;75.50;58.00;;;;;3.47;69.64;100260.72;3725814;38;21572;-72
2021/01/26 09:46:33;;;;;;;;;88.00;68.25;;;;;3.42;69.73;100246.09;3725978;37;21466;-75
2021/01/26 09:49:30;;;;;;;;;77.00;59.75;;;;;3.65;69.38;100255.41;3726770;38;18306;-74
2021/01/26 09:52:11;;;;;;;;;89.25;65.50;;;;;3.73;68.67;100260.03;3726443;38;21483;-73
2021/01/26 09:54:41;;;;;;;;;83.00;64.75;;;;;3.32;68.80;100198.81;3726085;38;21490;-75
2021/01/26 09:57:12;;;;;;;;;82.50;62.75;;;;;3.73;68.49;100254.69;3725859;38;21485;-74
2021/01/26 09:59:40;;;;;;;;;80.50;60.50;;;;;3.71;68.25;100248.62;3726450;38;18265;-71
2021/01/26 10:02:15;;;;;;;;;74.50;58.25;;;;;3.73;67.84;100230.59;3726103;38;21472;-71
2021/01/26 10:04:44;;;;;;;;;82.00;62.00;;;;;4.03;67.53;100269.62;3726035;37;21464;-70
2021/01/26 10:07:14;;;;;;;;;77.75;59.75;;;;;3.93;66.78;100238.41;3725967;37;21440;-72
2021/01/26 10:09:41;;;;;;;;;56.25;46.00;;;;;4.19;65.78;100265.28;3726708;38;21455;-71
2021/01/26 10:12:37;;;;;;;;;49.50;42.00;;;;;4.26;65.31;100260.19;3726390;38;21461;-72
2021/01/26 10:15:35;;;;;;;;;47.50;39.75;;;;;4.21;64.82;100238.34;3726624;38;21435;-72
2021/01/26 10:18:14;;;;;;;;;41.75;36.00;;;;;4.41;64.16;100247.13;3726141;37;21421;-72
2021/01/26 10:20:55;;;;;;;;;41.50;35.50;;;;;4.64;63.83;100269.81;3725868;37;21412;-70
2021/01/26 10:23:30;;;;;;;;;57.00;43.25;;;;;4.09;63.14;100188.69;3725676;38;21329;-73
2021/01/26 10:26:25;;;;;;;;;56.00;46.00;;;;;4.27;63.68;100237.75;3725982;38;21415;-74
2021/01/26 10:28:58;;;;;;;;;47.50;35.25;;;;;4.54;64.01;100271.72;3726006;37;21418;-72
2021/01/26 10:31:25;;;;;;;;;40.50;35.50;;;;;4.49;64.03;100250.72;3726585;38;21424;-76
2021/01/26 10:33:51;;;;;;;;;33.25;28.00;;;;;4.46;61.60;100266.25;3726250;38;21326;-76
2021/01/26 10:36:39;;;;;;;;;28.25;28.25;;;;;4.47;60.85;100271.47;3726086;37;21326;-74
2021/01/26 10:39:41;;;;;;;;;25.25;25.25;;;;;4.28;62.18;100191.22;3726559;37;21312;-74
2021/01/26 10:42:22;;;;;;;;;34.00;29.00;;;;;4.67;62.28;100233.81;3726326;37;21276;-73
2021/01/26 10:44:54;;;;;;;;;39.00;33.00;;;;;4.70;63.38;100253.06;3726327;37;21332;-74
2021/01/26 10:47:36;;;;;;;;;28.75;25.50;;;;;4.75;62.31;100268.72;3726387;37;21318;-74
2021/01/26 10:50:16;;;;;;;;;26.50;21.75;;;;;4.67;61.44;100258.78;3726026;38;21283;-75
2021/01/26 10:52:48;;;;;;;;;14.00;13.00;;;;;4.64;58.67;100275.16;3726012;38;21294;-73
2021/01/26 10:55:19;;;;;;;;;21.75;17.50;;;;;4.44;58.53;100244.13;3725818;37;21271;-74
2021/01/26 10:57:48;;;;;;;;;23.25;19.75;;;;;4.44;57.92;100249.50;3726359;37;21217;-74
2021/01/26 11:00:17;;;;;;;;;20.50;17.00;;;;;4.54;59.15;100277.06;3726242;37;21271;-74
2021/01/26 11:02:44;;;;;;;;;15.75;11.25;;;;;4.44;57.18;100252.16;3726390;38;21277;-74
2021/01/26 11:05:12;;;;;;;;;15.75;14.50;;;;;4.46;57.44;100260.91;3727946;37;21301;-72
2021/01/26 11:07:39;;;;;;;;;16.00;15.50;;;;;4.51;57.22;100274.69;3727448;38;21278;-73
2021/01/26 11:10:07;;;;;;;;;11.75;10.75;;;;;4.14;55.79;100253.38;3727830;37;21272;-70
2021/01/26 11:12:43;;;;;;;;;14.00;13.00;;;;;4.28;55.27;100272.44;3728796;37;21305;-74
2021/01/26 11:15:17;;;;;;;;;15.00;15.00;;;;;4.09;55.20;100248.47;3727137;38;21229;-72
2021/01/26 11:17:43;;;;;;;;;10.50;9.00;;;;;4.21;55.29;100291.94;3724977;38;21198;-72
2021/01/26 11:20:13;;;;;;;;;13.25;13.00;;;;;4.17;55.58;100253.03;3727186;38;21219;-71
2021/01/26 11:22:40;;;;;;;;;21.25;14.50;;;;;4.36;56.38;100274.34;3725953;37;21289;-72
2021/01/26 11:25:08;;;;;;;;;13.75;12.25;;;;;4.19;54.94;100267.97;3726401;37;21233;-67
2021/01/26 11:27:35;;;;;;;;;13.25;12.00;;;;;4.26;55.54;100270.87;3726052;37;21221;-65
2021/01/26 11:30:07;;;;;;;;;16.00;14.75;;;;;4.23;57.49;100263.16;3726144;37;21227;-70
2021/01/26 11:32:35;;;;;;;;;14.75;12.75;;;;;4.32;57.14;100281.00;3726333;37;21237;-71
2021/01/26 11:35:04;;;;;;;;;14.00;12.25;;;;;3.94;56.96;100231.19;3726296;38;21032;-72
2021/01/26 11:37:30;;;;;;;;;16.75;15.50;;;;;4.28;56.57;100279.62;3726333;38;21430;-72
2021/01/26 11:39:56;;;;;;;;;17.25;14.00;;;;;4.03;55.77;100261.59;3726468;37;21150;-73
2021/01/26 11:42:22;;;;;;;;;13.75;13.00;;;;;3.95;56.26;100219.50;3726089;37;21314;-73
2021/01/26 11:44:49;;;;;;;;;17.00;13.75;;;;;4.17;56.65;100266.44;3726227;38;21211;-70
2021/01/26 11:47:15;;;;;;;;;20.75;18.75;;;;;4.19;58.01;100275.16;3726393;37;21271;-72
2021/01/26 11:49:41;;;;;;;;;12.75;10.75;;;;;4.23;59.31;100279.22;3726325;38;21221;-71
2021/01/26 11:52:08;;;;;;;;;17.75;14.50;;;;;4.15;58.71;100257.72;3726589;37;21167;-69
2021/01/26 11:54:35;;;;;;;;;14.75;12.50;;;;;4.20;58.30;100275.00;3726234;37;21213;-68
2021/01/26 11:57:01;;;;;;;;;18.50;15.75;;;;;4.18;58.49;100277.00;3726198;37;21218;-68
2021/01/26 11:59:27;;;;;;;;;17.00;14.00;;;;;4.01;58.19;100271.63;3726377;37;21193;-69
2021/01/26 12:01:53;;;;;;;;;15.75;15.25;;;;;4.10;58.51;100281.44;3725866;37;21146;-67
2021/01/26 12:04:20;;;;;;;;;19.25;16.50;;;;;3.84;58.88;100259.84;3726028;37;21263;-67
2021/01/26 12:06:46;;;;;;;;;18.25;15.75;;;;;4.01;59.68;100280.50;3726060;37;21157;-68
2021/01/26 12:09:13;;;;;;;;;17.00;15.00;;;;;4.09;58.87;100271.72;3726179;37;21185;-68
2021/01/26 12:11:39;;;;;;;;;18.75;17.50;;;;;4.07;59.03;100266.50;3726537;37;21169;-69
2021/01/26 12:14:07;;;;;;;;;13.50;12.75;;;;;3.98;58.56;100262.03;3727208;37;21164;-68
2021/01/26 12:16:37;;;;;;;;;24.25;19.75;;;;;4.09;59.34;100280.59;3727405;38;21183;-67